Axis, Alabama
Current Conditions -  °F | °C
As of 2:53 PM on Sunday 23 Nov 2014 (Local Time) from KBFM Reporting Station
Broken Clouds Broken Clouds  
Wind Chill: 68°   Ceiling: 2100
Heat Index: 68°   Visibility: 10mi
Dew Point: 61°   Wind: 13mph
Humidity: 78%   Direction: 210°SSW
Pressure: 29.69"   Gusts: 23mph
Location:  30.93°N, 88.03°W
Report Text: KBFM 232053Z 21011G20KT 10SM BKN021 20/16 A2969 RMK AO2 SLP055 60014 T02000161 55010
Loading
Personal Weather Stations






























Interactive Weather Map New forecast layout! Learn more

10-Day Weather Forecast

Advertisements
Track Severe Weather on mobile